Buoy 43519

sailwx.info

Track history (hours):
 
Tides and Currents Weather Stations Pressure Air Temp Water Temp Dewpoint Dewpoint Depression Visibility Wind Speed Wind Dir Waves Ship Positions

Drifting buoy 43519

Last reported at 2015-Mar-28 14:00 UTC. Time now 2015-Mar-28 18:50 UTC.
Position N 31°51' W 120°10'.

Barometer 1018.9 mb
Water temperature 16.4 ° C

Date/timePositionNaut miles runAvg speedWind from/ knotsBaromVisibWave heightAir tempDewpointWater temp
2015-Mar-28 14:00N 31°51' W 120°10'0 0.1 1018.9 16.4
2015-Mar-28 13:00N 31°51' W 120°10'0 0.5 1018.7 16.4
2015-Mar-28 12:00N 31°51' W 120°09'0 0.5 1018.4 16.4
2015-Mar-28 11:00N 31°51' W 120°09'0 0.4 1018.5 16.4
2015-Mar-28 10:00N 31°52' W 120°08'0 0.1 1019.2 16.4
2015-Mar-28 09:00N 31°51' W 120°08'4 0.7 1019.7 16.4
2015-Mar-28 03:00N 31°56' W 120°07'1 0.7 1018.9 16.4
2015-Mar-28 02:00N 31°56' W 120°07'1 0.4 1018.2 16.4
2015-Mar-27 23:00N 31°57' W 120°07'0 0.1 1018.4 16.5
2015-Mar-27 17:00N 31°58' W 120°07'1 0.2 1020.0 16.3
2015-Mar-27 14:00N 31°58' W 120°07'0 0.3 1018.9 16.3
2015-Mar-27 13:00N 31°58' W 120°07'4 0.4 1018.2 16.3
2015-Mar-27 03:00N 32°02' W 120°06'0 0.0 1017.5 16.9
2015-Mar-27 02:00N 32°02' W 120°06'1 0.4 1017.4 16.9
2015-Mar-27 00:00N 32°03' W 120°06'1 0.7 1017.2 16.9
2015-Mar-26 22:00N 32°03' W 120°07'1 0.2 1017.7 17.0
2015-Mar-26 13:00N 32°05' W 120°07'0 0.3 1017.7 16.2
2015-Mar-26 12:00N 32°05' W 120°08'1 0.3 1017.9 16.2
2015-Mar-26 10:00N 32°06' W 120°07'0 0.0 1018.0 16.2
2015-Mar-26 09:00N 32°06' W 120°07'7 0.4 1018.2 16.2
2015-Mar-25 17:00N 32°13' W 120°08'4 1.1 1020.0 16.2
2015-Mar-25 13:00N 32°16' W 120°06'0 0.0 1018.4 16.2
2015-Mar-25 11:00N 32°16' W 120°06'0 0.4 1017.9 16.2
2015-Mar-25 10:00N 32°17' W 120°06'5 0.9 1018.0 16.2
2015-Mar-25 05:00N 32°21' W 120°05'0 0.0 1019.5 16.2
2015-Mar-25 04:00N 32°21' W 120°05'3 2.5 1019.4 16.3
2015-Mar-25 03:00N 32°23' W 120°07'1 0.4 1019.0 16.3
2015-Mar-25 00:00N 32°25' W 120°07'2 0.9 1019.2 16.4
2015-Mar-24 22:00N 32°26' W 120°06'2 2.0 1020.0 16.4
2015-Mar-24 21:00N 32°28' W 120°07'9 0.6 1020.5 16.4
2015-Mar-24 05:00N 32°37' W 120°10'8 0.4 1022.5 17.1
2015-Mar-23 12:00N 32°42' W 120°17'0 0.0 1022.5 17.2
2015-Mar-23 11:00N 32°42' W 120°17'2 1.0 1022.7 17.1
2015-Mar-23 09:00N 32°44' W 120°19'0 0.0 1023.5 17.1
2015-Mar-23 05:00N 32°44' W 120°19'0 0.5 1023.2 17.0
2015-Mar-23 04:00N 32°44' W 120°19'5 1.3 1023.0 17.0
2015-Mar-23 00:00N 32°48' W 120°23'1 0.3 1022.0 17.1
2015-Mar-22 22:00N 32°49' W 120°23'3 0.4 1022.7 16.6
2015-Mar-22 14:00N 32°52' W 120°23'2 0.7 1022.0 16.3
2015-Mar-22 11:00N 32°54' W 120°24'1 0.7 1021.5 16.3
2015-Mar-22 10:00N 32°54' W 120°25'1 0.6 1021.7 16.3
2015-Mar-22 08:00N 32°55' W 120°24'3 0.8 1022.2 16.3
2015-Mar-22 04:00N 32°58' W 120°26'6 0.4 1021.2 16.4
2015-Mar-21 14:00N 33°03' W 120°30'0 0.0 1019.5 16.2
2015-Mar-21 13:00N 33°03' W 120°30'1 0.3 1018.9 16.2
2015-Mar-21 11:00N 33°03' W 120°30'6 0.5 1018.2 16.2
2015-Mar-21 00:00N 33°08' W 120°34'0 0.2 1018.4 16.5
2015-Mar-20 23:00N 33°07' W 120°34'1 0.2 1018.7 16.5
2015-Mar-20 17:00N 33°08' W 120°35'0 0.0 1018.9 16.3
2015-Mar-20 16:00N 33°08' W 120°35'1 0.3 1018.2 16.2
2015-Mar-20 14:00N 33°08' W 120°35'0 0.0 1017.5 16.2
2015-Mar-20 13:00N 33°08' W 120°35'3 0.3 1016.9 16.2
2015-Mar-20 04:00N 33°10' W 120°36'1 0.4 1016.7 16.3
2015-Mar-20 02:00N 33°11' W 120°36'1 0.0 1015.7 16.4
2015-Mar-19 05:00N 33°11' W 120°37'1 0.4 1017.0 16.2
2015-Mar-19 03:00N 33°11' W 120°38'1 0.3 1015.9 16.2
2015-Mar-19 00:00N 33°10' W 120°39'0 0.0 1015.5 16.2
2015-Mar-18 23:00N 33°10' W 120°39'0 0.0 1015.5 16.3
2015-Mar-18 21:00N 33°10' W 120°39'2 0.9 1015.9 16.2
2015-Mar-18 19:00N 33°12' W 120°38'0 0.0 1016.5 16.2
2015-Mar-18 15:00N 33°12' W 120°38'   1015.5 16.2
Track history (hours):
 
Tides and Currents Weather Stations Pressure Air Temp Water Temp Dewpoint Dewpoint Depression Visibility Wind Speed Wind Dir Waves Ship Positions

Drifting buoy 43519

Last reported at 2015-Mar-28 14:00 UTC. Time now 2015-Mar-28 18:50 UTC.
Position N 31°51' W 120°10'.

Barometer 1018.9 mb
Water temperature 16.4 ° C

Date/timePositionNaut miles runAvg speedWind from/ knotsBaromVisibWave heightAir tempDewpointWater temp
2015-Mar-28 14:00N 31°51' W 120°10'0 0.1 1018.9 16.4
2015-Mar-28 13:00N 31°51' W 120°10'0 0.5 1018.7 16.4
2015-Mar-28 12:00N 31°51' W 120°09'0 0.5 1018.4 16.4
2015-Mar-28 11:00N 31°51' W 120°09'0 0.4 1018.5 16.4
2015-Mar-28 10:00N 31°52' W 120°08'0 0.1 1019.2 16.4
2015-Mar-28 09:00N 31°51' W 120°08'4 0.7 1019.7 16.4
2015-Mar-28 03:00N 31°56' W 120°07'1 0.7 1018.9 16.4
2015-Mar-28 02:00N 31°56' W 120°07'1 0.4 1018.2 16.4
2015-Mar-27 23:00N 31°57' W 120°07'0 0.1 1018.4 16.5
2015-Mar-27 17:00N 31°58' W 120°07'1 0.2 1020.0 16.3
2015-Mar-27 14:00N 31°58' W 120°07'0 0.3 1018.9 16.3
2015-Mar-27 13:00N 31°58' W 120°07'4 0.4 1018.2 16.3
2015-Mar-27 03:00N 32°02' W 120°06'0 0.0 1017.5 16.9
2015-Mar-27 02:00N 32°02' W 120°06'1 0.4 1017.4 16.9
2015-Mar-27 00:00N 32°03' W 120°06'1 0.7 1017.2 16.9
2015-Mar-26 22:00N 32°03' W 120°07'1 0.2 1017.7 17.0
2015-Mar-26 13:00N 32°05' W 120°07'0 0.3 1017.7 16.2
2015-Mar-26 12:00N 32°05' W 120°08'1 0.3 1017.9 16.2
2015-Mar-26 10:00N 32°06' W 120°07'0 0.0 1018.0 16.2
2015-Mar-26 09:00N 32°06' W 120°07'7 0.4 1018.2 16.2
2015-Mar-25 17:00N 32°13' W 120°08'4 1.1 1020.0 16.2
2015-Mar-25 13:00N 32°16' W 120°06'0 0.0 1018.4 16.2
2015-Mar-25 11:00N 32°16' W 120°06'0 0.4 1017.9 16.2
2015-Mar-25 10:00N 32°17' W 120°06'5 0.9 1018.0 16.2
2015-Mar-25 05:00N 32°21' W 120°05'0 0.0 1019.5 16.2
2015-Mar-25 04:00N 32°21' W 120°05'3 2.5 1019.4 16.3
2015-Mar-25 03:00N 32°23' W 120°07'1 0.4 1019.0 16.3
2015-Mar-25 00:00N 32°25' W 120°07'2 0.9 1019.2 16.4
2015-Mar-24 22:00N 32°26' W 120°06'2 2.0 1020.0 16.4
2015-Mar-24 21:00N 32°28' W 120°07'9 0.6 1020.5 16.4
2015-Mar-24 05:00N 32°37' W 120°10'8 0.4 1022.5 17.1
2015-Mar-23 12:00N 32°42' W 120°17'0 0.0 1022.5 17.2
2015-Mar-23 11:00N 32°42' W 120°17'2 1.0 1022.7 17.1
2015-Mar-23 09:00N 32°44' W 120°19'0 0.0 1023.5 17.1
2015-Mar-23 05:00N 32°44' W 120°19'0 0.5 1023.2 17.0
2015-Mar-23 04:00N 32°44' W 120°19'5 1.3 1023.0 17.0
2015-Mar-23 00:00N 32°48' W 120°23'1 0.3 1022.0 17.1
2015-Mar-22 22:00N 32°49' W 120°23'3 0.4 1022.7 16.6
2015-Mar-22 14:00N 32°52' W 120°23'2 0.7 1022.0 16.3
2015-Mar-22 11:00N 32°54' W 120°24'1 0.7 1021.5 16.3
2015-Mar-22 10:00N 32°54' W 120°25'1 0.6 1021.7 16.3
2015-Mar-22 08:00N 32°55' W 120°24'3 0.8 1022.2 16.3
2015-Mar-22 04:00N 32°58' W 120°26'6 0.4 1021.2 16.4
2015-Mar-21 14:00N 33°03' W 120°30'0 0.0 1019.5 16.2
2015-Mar-21 13:00N 33°03' W 120°30'1 0.3 1018.9 16.2
2015-Mar-21 11:00N 33°03' W 120°30'6 0.5 1018.2 16.2
2015-Mar-21 00:00N 33°08' W 120°34'0 0.2 1018.4 16.5
2015-Mar-20 23:00N 33°07' W 120°34'1 0.2 1018.7 16.5
2015-Mar-20 17:00N 33°08' W 120°35'0 0.0 1018.9 16.3
2015-Mar-20 16:00N 33°08' W 120°35'1 0.3 1018.2 16.2
2015-Mar-20 14:00N 33°08' W 120°35'0 0.0 1017.5 16.2
2015-Mar-20 13:00N 33°08' W 120°35'3 0.3 1016.9 16.2
2015-Mar-20 04:00N 33°10' W 120°36'1 0.4 1016.7 16.3
2015-Mar-20 02:00N 33°11' W 120°36'1 0.0 1015.7 16.4
2015-Mar-19 05:00N 33°11' W 120°37'1 0.4 1017.0 16.2
2015-Mar-19 03:00N 33°11' W 120°38'1 0.3 1015.9 16.2
2015-Mar-19 00:00N 33°10' W 120°39'0 0.0 1015.5 16.2
2015-Mar-18 23:00N 33°10' W 120°39'0 0.0 1015.5 16.3
2015-Mar-18 21:00N 33°10' W 120°39'2 0.9 1015.9 16.2
2015-Mar-18 19:00N 33°12' W 120°38'0 0.0 1016.5 16.2
2015-Mar-18 15:00N 33°12' W 120°38'   1015.5 16.2

Dump ship's entire track history